• Join FlightAware (Why Join?)
  • Login
  • US Flag 
02:53AM EST


 

Airport Tracker/Info


-or-


 

Live Flight TrackerFlight Track Log ✈ AAL832 ✈ 14-Jun-2013 ✈ KORD - KMIA

Flight Track Log - Related Links

Times and Time Zones

All times are in EDT time to prevent confusion due to time zone crossing. See the AAL832 flight status page for this flight to view local times or setup timezone preferences in your user account.

Time Position Orientation Groundspeed Altitude Reporting Facility
EDT Latitude Longitude Course Direction KTS MPH feet Rate Location/Type
05:53PM 41.9720 -87.8850 90° East 29 33  Level FlightAware
05:53PM 41.9720 -87.8830 90° East 27 31 360 Level FlightAware
05:56PM 41.7449 -87.8833 180° South  Level FlightAware Approximate
05:57PM 41.6342 -87.8833 180° South  Level FlightAware Approximate
05:58PM 41.5237 -87.8790 176° South  Level FlightAware Approximate
05:58PM 41.9690 -87.8800 176° South 2 2  Level FlightAware
05:59PM 41.9690 -87.8810 270° West 19 22 1,140 Level FlightAware
05:59PM 41.9640 -87.8860 217° Southwest 110 127 1,920 Level FlightAware
06:00PM 41.9200 -87.9250 213° Southwest 186 214 2,700 2,220 Climbing FlightAware
06:01PM 41.8950 -87.9360 198° South 220 253 3,500 1,740 Climbing FlightAware
06:01PM 41.8790 -87.9430 198° South 244 281 4,000 1,860 Climbing FlightAware
06:02PM 41.8460 -87.9570 198° South 266 306 5,300 2,760 Climbing FlightAware
06:02PM 41.8010 -87.9690 191° South 278 320 7,200 4,020 Climbing FlightAware
06:03PM 41.7640 -87.9630 173° South 285 328 8,800 3,480 Climbing FlightAware
06:03PM 41.7410 -87.9570 169° South 290 334 9,700 2,700 Climbing FlightAware
06:04PM 41.6810 -87.9430 170° South 312 359 11,600 2,460 Climbing FlightAware
06:04PM 41.6230 -87.9280 169° South 333 383 13,200 1,560 Climbing FlightAware
06:05PM 41.5500 -87.9110 170° South 394 453 13,800 1,500 Climbing FlightAware
06:06PM 41.4780 -87.8940 170° South 410 472 15,300 2,640 Climbing FlightAware
06:06PM 41.3930 -87.8800 173° South 411 473 17,500 2,460 Climbing FlightAware
06:07PM 41.3060 -87.8870 183° South 427 491 19,000 2,040 Climbing FlightAware
06:08PM 41.1630 -87.8850 179° South 445 512 21,500 1,980 Climbing FlightAware
06:09PM 41.0800 -87.8640 169° South 456 525 22,800 1,680 Climbing FlightAware
06:10PM 40.9960 -87.8430 169° South 469 540 23,800 1,860 Climbing FlightAware
06:10PM 40.9120 -87.8200 168° South 467 537 25,300 1,740 Climbing FlightAware
06:11PM 40.8570 -87.8060 169° South 467 537 26,200 1,440 Climbing FlightAware
06:12PM 40.7340 -87.7740 169° South 485 558 27,300 1,200 Climbing FlightAware
06:12PM 40.6390 -87.7500 169° South 504 580 27,900 900 Climbing FlightAware
06:13PM 40.5520 -87.7290 170° South 513 590 28,600 1,080 Climbing FlightAware
06:14PM 40.4400 -87.7000 169° South 522 601 29,500 1,320 Climbing FlightAware
06:15PM 40.3400 -87.6750 169° South 522 601 30,600 1,440 Climbing FlightAware
06:16PM 40.2070 -87.6410 169° South 521 600 31,900 1,560 Climbing FlightAware
06:16PM 40.1090 -87.6170 169° South 515 593 33,100 1,860 Climbing FlightAware
06:17PM 40.0120 -87.5930 169° South 499 574 34,500 1,680 Climbing FlightAware
06:18PM 39.9100 -87.5680 169° South 490 564 35,600 1,320 Climbing FlightAware
06:18PM 39.8250 -87.5470 169° South 486 559 36,400 1,020 Climbing FlightAware
06:19PM 39.7320 -87.5250 170° South 486 559 37,000 420 Climbing FlightAware
06:20PM 39.6380 -87.5020 169° South 488 562 37,000  Level FlightAware
06:20PM 39.5460 -87.4790 169° South 493 567 37,000  Level FlightAware
06:21PM 39.4460 -87.4540 169° South 498 573 37,000  Level FlightAware
06:22PM 39.3560 -87.4330 170° South 499 574 37,000  Level FlightAware
06:22PM 39.2630 -87.4100 169° South 500 575 37,000  Level FlightAware
06:23PM 39.1670 -87.3870 169° South 501 577 37,000  Level FlightAware
06:24PM 39.0720 -87.3630 169° South 501 577 37,000  Level FlightAware
06:25PM 38.9670 -87.3380 170° South 502 578 37,000  Level FlightAware
06:25PM 38.8780 -87.3160 169° South 503 579 37,000  Level FlightAware
06:26PM 38.7910 -87.2950 169° South 502 578 37,000  Level FlightAware
06:27PM 38.6800 -87.2690 170° South 502 578 37,000  Level FlightAware
06:27PM 38.5870 -87.2470 170° South 501 577 37,000  Level FlightAware
06:28PM 38.4850 -87.2220 169° South 500 575 37,000  Level FlightAware
06:29PM 38.3970 -87.2020 170° South 500 575 37,000  Level FlightAware
06:29PM 38.3040 -87.1810 170° South 500 575 37,000  Level FlightAware
06:30PM 38.2450 -87.1670 169° South 500 575 37,000  Level FlightAware
06:31PM 38.1120 -87.1360 170° South 500 575 37,000  Level FlightAware
06:31PM 38.0290 -87.1170 170° South 501 577 37,000  Level FlightAware
06:32PM 37.9250 -87.0920 169° South 502 578 37,000  Level FlightAware
06:33PM 37.8330 -87.0710 170° South 503 579 37,000  Level FlightAware
06:34PM 37.7360 -87.0480 169° South 504 580 37,000  Level FlightAware
06:34PM 37.6390 -87.0260 170° South 505 581 37,000  Level FlightAware
06:35PM 37.5440 -87.0040 170° South 506 582 37,000  Level FlightAware
06:36PM 37.4380 -86.9790 169° South 506 582 37,000  Level FlightAware
06:36PM 37.3470 -86.9580 170° South 505 581 37,000  Level FlightAware
06:37PM 37.2490 -86.9360 170° South 505 581 37,000  Level FlightAware
06:38PM 37.1560 -86.9150 170° South 504 580 37,000  Level FlightAware
06:39PM 37.0570 -86.8920 169° South 503 579 37,000  Level FlightAware
06:39PM 36.9434 -86.8661 170° South 502 578 37,000  Level FlightAware ADS-B
06:40PM 36.8739 -86.8503 170° South 498 573 37,000  Level FlightAware ADS-B
06:41PM 36.7720 -86.8270 170° South 495 570 37,000  Level FlightAware
06:41PM 36.7470 -86.8215 170° South 498 573 37,000  Level FlightAware ADS-B
06:41PM 36.7271 -86.8154 166° South 497 572 37,000  Level FlightAware ADS-B
06:41PM 36.7014 -86.8045 161° South 498 573 37,000  Level FlightAware ADS-B
06:41PM 36.6679 -86.7852 155° Southeast 499 574 37,000  Level FlightAware ADS-B
06:42PM 36.6077 -86.7379 148° Southeast 499 574 37,000  Level FlightAware ADS-B
06:43PM 36.5160 -86.6640 147° Southeast 498 573 37,000  Level FlightAware
06:43PM 36.4350 -86.5990 147° Southeast 500 575 37,000  Level FlightAware
06:44PM 36.3520 -86.5320 147° Southeast 503 579 37,000  Level FlightAware
06:45PM 36.2820 -86.4760 147° Southeast 503 579 37,000  Level FlightAware
06:45PM 36.2504 -86.4508 147° Southeast 503 579 37,000  Level FlightAware ADS-B
06:45PM 36.1898 -86.4024 147° Southeast 505 581 37,000  Level FlightAware ADS-B
06:46PM 36.1302 -86.3547 147° Southeast 508 585 37,000  Level FlightAware ADS-B
06:47PM 36.0091 -86.2583 147° Southeast 510 587 37,000  Level FlightAware ADS-B
06:48PM 35.9390 -86.2030 147° Southeast 510 587 37,000  Level FlightAware
06:48PM 35.8814 -86.1573 147° Southeast 511 588 37,000  Level FlightAware ADS-B
06:49PM 35.8210 -86.1096 147° Southeast 512 589 37,000  Level FlightAware ADS-B
06:49PM 35.7578 -86.0598 147° Southeast 512 589 37,000  Level FlightAware ADS-B
06:50PM 35.6890 -86.0060 148° Southeast 511 588 37,000  Level FlightAware
06:50PM 35.6302 -85.9598 147° Southeast 512 589 37,000  Level FlightAware ADS-B
06:51PM 35.5649 -85.9087 148° Southeast 513 590 37,000  Level FlightAware ADS-B
06:51PM 35.5047 -85.8617 148° Southeast 513 590 37,000  Level FlightAware ADS-B
06:52PM 35.4440 -85.8143 148° Southeast 512 589 37,000  Level FlightAware ADS-B
06:52PM 35.3838 -85.7673 148° Southeast 511 588 37,000  Level FlightAware ADS-B
06:53PM 35.3270 -85.7230 148° Southeast 509 586 37,000  Level FlightAware
06:53PM 35.2630 -85.6734 148° Southeast 510 587 37,000  Level FlightAware ADS-B
06:54PM 35.2014 -85.6255 148° Southeast 508 585 37,000  Level FlightAware ADS-B
06:54PM 35.1412 -85.5790 148° Southeast 509 586 37,000  Level FlightAware ADS-B
06:55PM 35.0785 -85.5306 148° Southeast 509 586 37,000  Level FlightAware ADS-B
06:55PM 35.0162 -85.4826 148° Southeast 510 587 37,000  Level FlightAware ADS-B
06:56PM 34.9543 -85.4351 148° Southeast 510 587 37,000  Level FlightAware ADS-B
06:56PM 34.8868 -85.3834 148° Southeast 510 587 37,000  Level FlightAware ADS-B
06:57PM 34.8236 -85.3349 148° Southeast 511 588 37,000  Level FlightAware ADS-B
06:57PM 34.7618 -85.2875 148° Southeast 511 588 37,000  Level FlightAware ADS-B
06:58PM 34.7011 -85.2412 148° Southeast 510 587 37,000  Level FlightAware ADS-B
06:58PM 34.6360 -85.1919 148° Southeast 510 587 37,000  Level FlightAware ADS-B
06:59PM 34.5400 -85.1190 148° Southeast 511 588 37,000  Level FlightAware
07:00PM 34.4808 -85.0737 148° Southeast 512 589 37,000  Level FlightAware ADS-B
07:00PM 34.4170 -85.0252 148° Southeast 511 588 37,000  Level FlightAware ADS-B
07:01PM 34.3520 -84.9760 148° Southeast 512 589 37,000  Level FlightAware ADS-B
07:01PM 34.2900 -84.9293 148° Southeast 512 589 37,000  Level FlightAware ADS-B
07:02PM 34.2295 -84.8837 148° Southeast 511 588 37,000  Level FlightAware ADS-B
07:03PM 34.1439 -84.8193 148° Southeast 510 587 37,000  Level FlightAware ADS-B
07:04PM 34.0160 -84.7233 148° Southeast 509 586 37,000  Level FlightAware ADS-B
07:04PM 33.9409 -84.6670 148° Southeast 507 583 37,000  Level FlightAware ADS-B
07:05PM 33.8809 -84.6223 148° Southeast 506 582 37,000  Level FlightAware ADS-B
07:05PM 33.8191 -84.5764 148° Southeast 505 581 37,000  Level FlightAware ADS-B
07:06PM 33.7567 -84.5300 148° Southeast 505 581 37,000  Level FlightAware ADS-B
07:06PM 33.6962 -84.4852 148° Southeast 506 582 37,000  Level FlightAware ADS-B
07:07PM 33.6340 -84.4418 150° Southeast 506 582 37,000  Level FlightAware ADS-B
07:07PM 33.6006 -84.4240 156° South 506 582 37,000  Level FlightAware ADS-B
07:08PM 33.5441 -84.3997 160° South 507 583 37,000  Level FlightAware ADS-B
07:08PM 33.4280 -84.3510 161° South 506 582 37,000  Level FlightAware
07:09PM 33.3900 -84.3351 161° South 507 583 37,000  Level FlightAware ADS-B
07:09PM 33.3190 -84.3056 161° South 506 582 37,000  Level FlightAware ADS-B
07:10PM 33.2390 -84.2720 161° South 505 581 37,000  Level FlightAware
07:10PM 33.1540 -84.2370 161° South 502 578 37,000  Level FlightAware
07:11PM 33.0550 -84.1960 161° South 500 575 37,000  Level FlightAware
07:12PM 32.9980 -84.1730 161° South 500 575 37,000  Level FlightAware
07:13PM 32.8830 -84.1250 161° South 498 573 37,000  Level FlightAware
07:13PM 32.7930 -84.0880 161° South 496 571 37,000  Level FlightAware
07:14PM 32.7190 -84.0580 161° South 495 570 37,000  Level FlightAware
07:15PM 32.6190 -84.0150 160° South 495 570 37,000  Level FlightAware
07:15PM 32.5190 -83.9760 162° South 490 564 37,000  Level FlightAware
07:16PM 32.4340 -83.9410 161° South 489 563 37,000  Level FlightAware
07:17PM 32.3290 -83.8970 161° South 487 560 37,000  Level FlightAware
07:18PM 32.2340 -83.8560 160° South 487 560 37,000  Level FlightAware
07:19PM 32.1480 -83.8190 160° South 487 560 37,000  Level FlightAware
07:19PM 32.0830 -83.7910 160° South 487 560 37,000  Level FlightAware
07:20PM 31.9910 -83.7520 160° South 487 560 37,000  Level FlightAware
07:21PM 31.9170 -83.7200 160° South 487 560 37,000  Level FlightAware
07:21PM 31.8420 -83.6880 160° South 487 560 37,000  Level FlightAware
07:22PM 31.7770 -83.6600 160° South 487 560 37,000  Level FlightAware
07:23PM 31.6960 -83.6250 160° South 487 560 37,000  Level FlightAware
07:23PM 31.6240 -83.5950 160° South 487 560 37,000  Level FlightAware
07:24PM 31.5410 -83.5590 160° South 487 560 37,000  Level FlightAware
07:25PM 31.4350 -83.5140 160° South 487 560 37,000  Level FlightAware
07:26PM 31.2570 -83.5450 188° South 481 554 37,000  Level FlightAware
07:26PM 31.1760 -83.5230 167° South 481 554 37,000  Level FlightAware
07:27PM 31.1890 -83.5260 349° North 481 554 37,000  Level FlightAware
07:28PM 30.9070 -83.4570 168° South 488 562 37,000  Level FlightAware
07:29PM 30.8190 -83.4340 167° South 488 562 37,000  Level FlightAware
07:30PM 30.7500 -83.4160 167° South 488 562 37,000  Level FlightAware
07:31PM 30.8150 -83.4330 347° North 486 559 37,000  Level FlightAware
07:31PM 30.7480 -83.4150 167° South 486 559 37,000  Level FlightAware
07:32PM 30.6610 -83.3920 167° South 486 559 37,000  Level FlightAware
07:33PM 30.5920 -83.3730 167° South 486 559 37,000  Level FlightAware
07:33PM 30.5040 -83.3500 167° South 486 559 37,000  Level FlightAware
07:34PM 30.4370 -83.3320 167° South 486 559 37,000  Level FlightAware
07:35PM 30.3440 -83.3070 167° South 486 559 37,000  Level FlightAware
07:35PM 30.2710 -83.2880 167° South 486 559 37,000  Level FlightAware
07:36PM 30.2020 -83.2690 167° South 486 559 37,000  Level FlightAware
07:37PM 30.1210 -83.2470 167° South 486 559 37,000  Level FlightAware
07:37PM 30.0350 -83.2240 167° South 486 559 37,000  Level FlightAware
07:38PM 29.9680 -83.2070 168° South 486 559 37,000  Level FlightAware
07:39PM 29.8800 -83.1830 167° South 486 559 37,000  Level FlightAware
07:40PM 29.7930 -83.1600 167° South 486 559 37,000  Level FlightAware
07:42PM 28.9870 -82.9880 169° South 490 564 37,000  Level FlightAware
07:43PM 28.8720 -82.9600 168° South 490 564 37,000  Level FlightAware
07:44PM 28.8020 -82.9430 168° South 490 564 37,000  Level FlightAware
07:45PM 28.6320 -82.9030 168° South 480 552 37,000  Level FlightAware
07:46PM 28.5090 -82.8730 168° South 480 552 37,000  Level FlightAware
07:47PM 28.4420 -82.8570 168° South 480 552 37,000  Level FlightAware
07:48PM 28.3150 -82.8280 169° South 481 554 37,000  Level FlightAware
07:48PM 28.2270 -82.8070 168° South 483 556 37,000  Level FlightAware
07:49PM 28.1280 -82.7840 168° South 482 555 37,000  Level FlightAware
07:50PM 28.0500 -82.7650 168° South 482 555 37,000  Level FlightAware
07:51PM 27.9440 -82.7400 168° South 481 554 37,000  Level FlightAware
07:51PM 27.8780 -82.7240 168° South 481 554 37,000  Level FlightAware
07:52PM 27.7870 -82.7020 168° South 481 554 37,000  Level FlightAware
07:53PM 27.7200 -82.6860 168° South 481 554 37,000  Level FlightAware
07:53PM 27.6320 -82.6650 168° South 481 554 37,000  Level FlightAware
07:54PM 27.5650 -82.6490 168° South 481 554 37,000  Level FlightAware
07:55PM 27.4710 -82.6260 168° South 481 554 37,000  Level FlightAware
07:56PM 27.3780 -82.6040 168° South 481 554 37,000  Level FlightAware
07:56PM 27.3100 -82.5880 168° South 481 554 37,000  Level FlightAware
07:57PM 27.1090 -82.4260 144° Southeast 473 544 37,000  Level FlightAware
07:58PM 27.0210 -82.3920 161° South 473 544 37,000  Level FlightAware
07:59PM 26.9480 -82.2650 123° Southeast 37,000  Level FlightAware
07:59PM 26.9450 -82.2610 130° Southeast 37,000  Level FlightAware
07:59PM 26.8710 -82.1690 132° Southeast 467 537 37,000 -240 Level FlightAware
08:00PM 26.8090 -82.0910 132° Southeast 463 533 36,700 -600 Descending FlightAware
08:01PM 26.7740 -82.0480 132° Southeast 467 537 36,400 -960 Descending FlightAware
08:01PM 26.7060 -81.9640 132° Southeast 470 541 35,600 -1,020 Descending FlightAware
08:02PM 26.6470 -81.8910 132° Southeast 479 551 35,000 -960 Descending FlightAware
08:03PM 26.5790 -81.8070 132° Southeast 477 549 34,300 -1,080 Descending FlightAware
08:03PM 26.5290 -81.7450 132° Southeast 462 532 33,600 -2,040 Descending FlightAware
08:04PM 26.4640 -81.6650 132° Southeast 464 534 31,600 -2,820 Descending FlightAware
08:05PM 26.3970 -81.5830 132° Southeast 474 545 29,500 -2,580 Descending FlightAware
08:05PM 26.3390 -81.5130 133° Southeast 463 533 28,000 -2,400 Descending FlightAware
08:06PM 26.2730 -81.4310 132° Southeast 456 525 26,100 -2,400 Descending FlightAware
08:07PM 26.2170 -81.3630 133° Southeast 451 519 24,600 -2,280 Descending FlightAware
08:08PM 26.1540 -81.2850 132° Southeast 439 505 22,900 -2,280 Descending FlightAware
08:08PM 26.1000 -81.2200 133° Southeast 427 491 21,400 -2,220 Descending FlightAware
08:09PM 26.0480 -81.1570 133° Southeast 411 473 20,000 -2,100 Descending FlightAware
08:10PM 25.9970 -81.0950 132° Southeast 391 450 18,700 -1,980 Descending FlightAware
08:10PM 25.9430 -81.0290 132° Southeast 385 443 17,200 -1,620 Descending FlightAware
08:11PM 25.8960 -80.9680 131° Southeast 379 436 16,000 -1,080 Descending FlightAware
08:12PM 25.8750 -80.9180 115° Southeast 369 425 16,000 -660 Level FlightAware
08:12PM 25.8520 -80.8350 107° East 366 421 15,400 -1,200 Descending FlightAware
08:13PM 25.8550 -80.7620 87° East 355 409 14,300 -1,800 Descending FlightAware
08:14PM 25.8590 -80.6980 86° East 347 399 13,200 -1,860 Descending FlightAware
08:14PM 25.8640 -80.6110 86° East 337 388 11,700 -1,440 Descending FlightAware
08:15PM 25.8690 -80.5460 85° East 308 354 11,100 -1,200 Descending FlightAware
08:16PM 25.8730 -80.4750 86° East 296 341 10,000 -1,440 Descending FlightAware
08:16PM 25.8750 -80.4390 86° East 289 333 9,400 -1,140 Descending FlightAware
08:17PM 25.8790 -80.3750 86° East 260 299 8,700 -1,140 Descending FlightAware
08:17PM 25.8810 -80.3430 86° East 252 290 8,100 -1,560 Descending FlightAware
08:18PM 25.8830 -80.3050 87° East 245 282 7,300 -1,620 Descending FlightAware
08:18PM 25.8840 -80.2910 85° East 240 276 7,000 -1,800 Descending FlightAware
08:19PM 25.8850 -80.2560 88° East 236 272 6,100 -1,980 Descending FlightAware
08:19PM 25.8880 -80.2200 85° East 230 265 5,100 -1,980 Descending FlightAware
08:19PM 25.8900 -80.1900 86° East 229 264 4,300 -1,500 Descending FlightAware
08:20PM 25.8950 -80.1240 85° East 222 255 3,000 -1,200 Descending FlightAware
08:21PM 25.8920 -80.1100 103° East 220 253 2,900 -240 Descending FlightAware
08:21PM 25.8770 -80.0970 142° Southeast 203 234 2,900 120 Level FlightAware
08:21PM 25.8530 -80.0930 171° South 187 215 3,000 60 Climbing FlightAware
08:22PM 25.8220 -80.1020 195° South 177 204 3,000 -480 Level FlightAware
08:23PM 25.8100 -80.1200 233° Southwest 172 198 2,500 -1,260 Descending FlightAware
08:23PM 25.8090 -80.1440 267° West 174 200 2,100 -780 Descending FlightAware
08:23PM 25.8080 -80.1670 267° West 173 199 1,800 -840 Descending FlightAware
08:24PM 25.8050 -80.1960 263° West 177 204 1,300 -900 Descending FlightAware
08:24PM 25.8040 -80.2210 267° West 161 185 900 -840 Descending FlightAware
08:25PM 25.8020 -80.2610 267° West 158 182 200 -780 Descending FlightAware
08:26PM 25.8010 -80.2910 268° West 159 183 -360 Descending FlightAware
08:27PM 25.8000 -80.2940 250° West 21 24  Level FlightAware
08:27PM 25.7990 -80.2930 138° Southeast 26 30  Level FlightAware